Hlavní strana
METAR-TAF:

METAR-TAF

Letiště :

First Flight Airport

Kill Devil Hills, Severní Karolína, Spojené státy americké

zeměpisná šířka: 36-01N, zeměpisná délka: 075-40W, výška: 4 m

Aktuální stav počasí

Zpráva byla vytvořena před 17 minutami, v 17:15 UTC
Západní vítr 11 kt s nárazy do 18 kt
Teplota 9°C
Vlhkost vzduchu 46%
Tlak 1012 hPa
Viditelnost: 16.1 km
Jasno

METAR: KFFA 271715Z AUTO 26011G18KT 10SM CLR 09/M02 A2987 RMK AO2 T00861025

Čas: 12:32 (17:32 UTC)


TAF: chybějící

Stav a předpovědi počasí z více než 4 000 letišť (zprávy METAR a TAF).

Červené a žluté tečky na mapě představují dostupné meteorologické stanice.

Když kurzor umístíte na tečku, zobrazí se název stanice.

Pak kliknutím zobrazíte stav a předpověď počasí.

Chcete-li změnit mapu, kliknutím na zelené tlačítko se znaménkem +mapu přiblížíte, kliknutím na zelené tlačítko se znaménkem – mapu oddálíte a kliknutím na zelené šipky přejdete na sousední mapy.


METAR-TAF: